Time;durP1;ratioP1;P1;durP2;ratioP2;P2;SDS_P1;SDS_P2;PMS_P1;PMS_P2;Temp;Humidity;BMP_temperature;BMP_pressure;BME280_temperature;BME280_humidity;BME280_pressure;Samples;Min_cycle;Max_cycle;Signal;HPM_P1;HPM_P2
2022/10/01 00:00:19;;;;;;;10.37;7.10;;;10.30;1.00;;;;;;5088071;28;20961;-70
2022/10/01 00:02:45;;;;;;;9.50;7.03;;;10.40;1.00;;;;;;5093138;28;20560;-71
2022/10/01 00:05:11;;;;;;;11.60;7.00;;;10.40;1.00;;;;;;5088921;28;20505;-70
2022/10/01 00:07:41;;;;;;;11.57;7.13;;;10.40;1.00;;;;;;5092030;28;20194;-71
2022/10/01 00:10:07;;;;;;;9.93;6.87;;;10.40;1.00;;;;;;5090832;28;20332;-71
2022/10/01 00:12:33;;;;;;;9.50;6.77;;;10.40;1.00;;;;;;5089224;28;20469;-72
2022/10/01 00:14:59;;;;;;;11.93;7.13;;;10.40;1.00;;;;;;5084871;28;20459;-71
2022/10/01 00:17:25;;;;;;;9.80;6.90;;;10.40;1.00;;;;;;5091473;28;20465;-72
2022/10/01 00:19:50;;;;;;;8.40;6.80;;;10.40;1.00;;;;;;5090959;28;20188;-71
2022/10/01 00:22:17;;;;;;;10.07;7.47;;;10.40;1.00;;;;;;5091348;28;20171;-73
2022/10/01 00:24:46;;;;;;;10.17;7.77;;;10.30;1.00;;;;;;5083844;28;20595;-72
2022/10/01 00:27:12;;;;;;;13.50;8.37;;;10.30;1.00;;;;;;5087059;28;20906;-72
2022/10/01 00:29:38;;;;;;;12.10;6.77;;;10.30;1.00;;;;;;5088364;28;20533;-72
2022/10/01 00:32:04;;;;;;;11.53;7.07;;;10.30;1.00;;;;;;5088983;28;20430;-72
2022/10/01 00:34:30;;;;;;;8.60;7.00;;;10.30;1.00;;;;;;5091425;28;20426;-71
2022/10/01 00:36:55;;;;;;;9.27;6.33;;;10.30;1.00;;;;;;5088188;28;20188;-72
2022/10/01 00:39:22;;;;;;;10.13;6.93;;;10.30;1.00;;;;;;5082576;28;20717;-71
2022/10/01 00:41:49;;;;;;;12.40;6.10;;;10.30;1.00;;;;;;5089086;28;20167;-72
2022/10/01 00:44:36;;;;;;;7.97;5.90;;;10.30;1.00;;;;;;5087867;28;20441;-73
2022/10/01 00:47:16;;;;;;;7.33;6.30;;;10.30;1.00;;;;;;5086631;28;20410;-73
2022/10/01 00:49:42;;;;;;;9.13;5.90;;;10.30;1.00;;;;;;5083564;28;20643;-72
2022/10/01 00:52:13;;;;;;;9.17;5.90;;;10.30;1.00;;;;;;5086864;28;20462;-72
2022/10/01 00:54:51;;;;;;;8.23;6.27;;;10.30;1.00;;;;;;5087481;28;20488;-72
2022/10/01 00:57:20;;;;;;;7.83;5.63;;;10.30;1.00;;;;;;5090287;28;20465;-72
2022/10/01 00:59:47;;;;;;;10.37;6.43;;;10.30;1.00;;;;;;5088889;28;20446;-73
2022/10/01 01:02:12;;;;;;;7.80;5.10;;;10.30;1.00;;;;;;5081662;28;20913;-72
2022/10/01 01:04:39;;;;;;;6.47;5.30;;;10.30;1.00;;;;;;5083389;28;20457;-72
2022/10/01 01:07:06;;;;;;;7.10;5.50;;;10.30;1.00;;;;;;5090019;28;20650;-71
2022/10/01 01:09:38;;;;;;;6.57;5.60;;;10.30;1.00;;;;;;5083776;28;20466;-72
2022/10/01 01:12:31;;;;;;;8.33;5.43;;;10.30;1.00;;;;;;5088551;28;20417;-71
2022/10/01 01:15:10;;;;;;;8.97;5.90;;;10.40;1.00;;;;;;5082984;28;20449;-71
2022/10/01 01:17:41;;;;;;;5.73;4.90;;;10.40;1.00;;;;;;5090037;28;20457;-72
2022/10/01 01:20:17;;;;;;;6.27;5.03;;;10.40;1.00;;;;;;5081650;28;20474;-71
2022/10/01 01:22:53;;;;;;;7.77;5.73;;;10.40;1.00;;;;;;5090144;28;20393;-70
2022/10/01 01:25:29;;;;;;;6.07;4.90;;;10.40;1.00;;;;;;5069773;28;20425;-70
2022/10/01 01:28:13;;;;;;;8.33;5.00;;;10.50;1.00;;;;;;5090853;28;20430;-70
2022/10/01 01:30:40;;;;;;;5.90;4.83;;;10.50;1.00;;;;;;5080959;28;20438;-71
2022/10/01 01:33:16;;;;;;;6.10;4.40;;;10.50;1.00;;;;;;5074461;28;20418;-70
2022/10/01 01:35:57;;;;;;;6.17;4.80;;;10.50;1.00;;;;;;5085771;28;20425;-71
2022/10/01 01:38:32;;;;;;;8.87;5.23;;;10.60;1.00;;;;;;5086917;28;20469;-71
2022/10/01 01:41:00;;;;;;;5.70;5.00;;;10.60;1.00;;;;;;5080700;28;20951;-71
2022/10/01 01:43:32;;;;;;;6.77;5.00;;;10.60;1.00;;;;;;5071980;28;20567;-71
2022/10/01 01:46:00;;;;;;;11.33;5.20;;;10.60;1.00;;;;;;5080892;28;20434;-71
2022/10/01 01:48:28;;;;;;;6.47;4.83;;;10.70;1.00;;;;;;5072221;28;20430;-71
2022/10/01 01:51:10;;;;;;;6.53;4.60;;;10.70;1.00;;;;;;5079494;28;20441;-71
2022/10/01 01:53:35;;;;;;;7.83;5.20;;;10.70;1.00;;;;;;5090001;28;20445;-72
2022/10/01 01:56:01;;;;;;;6.57;5.17;;;10.70;1.00;;;;;;5081985;28;20928;-71
2022/10/01 01:58:27;;;;;;;8.20;5.40;;;10.70;1.00;;;;;;5083506;28;20212;-70
2022/10/01 02:00:53;;;;;;;7.17;4.80;;;10.70;1.00;;;;;;5085675;28;20249;-70
2022/10/01 02:03:21;;;;;;;8.63;5.20;;;10.70;1.00;;;;;;5088513;28;20839;-70
2022/10/01 02:06:22;;;;;;;5.63;4.60;;;10.70;1.00;;;;;;5081042;28;20210;-72
2022/10/01 02:08:56;;;;;;;7.53;5.20;;;10.70;1.00;;;;;;5086265;28;20802;-71
2022/10/01 02:11:43;;;;;;;6.73;4.53;;;10.70;1.00;;;;;;5083737;28;20420;-71
2022/10/01 02:14:27;;;;;;;5.30;4.73;;;10.70;1.00;;;;;;5074147;28;20412;-72
2022/10/01 02:17:04;;;;;;;5.70;4.90;;;10.60;1.00;;;;;;5088219;28;20457;-71
2022/10/01 02:19:46;;;;;;;7.03;5.10;;;10.60;1.00;;;;;;5085162;28;20445;-71
2022/10/01 02:22:18;;;;;;;8.57;5.13;;;10.60;1.00;;;;;;5087593;28;20946;-70
2022/10/01 02:24:55;;;;;;;12.43;10.10;;;10.50;1.00;;;;;;5065024;28;20426;-70
2022/10/01 02:27:30;;;;;;;10.07;7.67;;;10.50;1.00;;;;;;5089309;28;20409;-73
2022/10/01 02:30:00;;;;;;;9.67;5.40;;;10.50;1.00;;;;;;5084390;28;20453;-72
2022/10/01 02:32:29;;;;;;;6.80;4.60;;;10.40;1.00;;;;;;5070683;28;20899;-71
2022/10/01 02:34:56;;;;;;;6.07;5.00;;;10.50;1.00;;;;;;5067546;28;20551;-72
2022/10/01 02:37:24;;;;;;;6.30;4.67;;;10.50;1.00;;;;;;5087333;28;20839;-72
2022/10/01 02:39:53;;;;;;;6.63;4.43;;;10.40;1.00;;;;;;5049077;28;20832;-72
2022/10/01 02:42:20;;;;;;;5.53;4.70;;;10.50;1.00;;;;;;5083053;28;20425;-72
2022/10/01 02:44:48;;;;;;;8.90;4.70;;;10.50;1.00;;;;;;5082711;28;20998;-71
2022/10/01 02:47:25;;;;;;;5.37;4.03;;;10.50;1.00;;;;;;5099982;28;20866;-70
2022/10/01 02:49:51;;;;;;;5.40;3.83;;;10.60;1.00;;;;;;5083610;28;20440;-71
2022/10/01 02:52:39;;;;;;;5.60;3.80;;;10.70;1.00;;;;;;5086136;28;20541;-72
2022/10/01 02:55:10;;;;;;;6.90;4.23;;;10.70;1.00;;;;;;5083824;28;20528;-73
2022/10/01 02:57:36;;;;;;;4.00;3.57;;;10.80;1.00;;;;;;5086145;28;20449;-71
2022/10/01 03:00:09;;;;;;;5.63;3.93;;;10.80;1.00;;;;;;5089091;28;20503;-72
2022/10/01 03:02:35;;;;;;;5.40;3.90;;;10.80;1.00;;;;;;5085906;28;20429;-73
2022/10/01 03:05:01;;;;;;;4.00;3.57;;;10.80;1.00;;;;;;5085017;28;20465;-72
2022/10/01 03:07:29;;;;;;;6.10;3.50;;;10.90;1.00;;;;;;5084722;28;20199;-72
2022/10/01 03:09:55;;;;;;;7.60;3.80;;;10.90;1.00;;;;;;5084767;28;20537;-71
2022/10/01 03:12:22;;;;;;;5.03;3.50;;;10.90;1.00;;;;;;5087746;28;20434;-71
2022/10/01 03:14:48;;;;;;;5.03;3.47;;;11.00;1.00;;;;;;5088911;28;20792;-72
2022/10/01 03:17:14;;;;;;;5.00;3.50;;;11.00;1.00;;;;;;5088266;28;20452;-71
2022/10/01 03:19:40;;;;;;;5.83;4.10;;;11.00;1.00;;;;;;5082258;28;20196;-72
2022/10/01 03:22:12;;;;;;;5.53;3.40;;;11.00;1.00;;;;;;5088359;28;20402;-72
2022/10/01 03:24:37;;;;;;;7.47;3.73;;;11.00;1.00;;;;;;5082537;28;20984;-70
2022/10/01 03:27:03;;;;;;;4.60;3.37;;;11.00;1.00;;;;;;5088587;28;20428;-72
2022/10/01 03:29:28;;;;;;;4.10;3.40;;;11.10;1.00;;;;;;5087229;28;20219;-72
2022/10/01 03:31:54;;;;;;;5.10;3.73;;;11.10;1.00;;;;;;5088075;28;20253;-72
2022/10/01 03:34:20;;;;;;;6.07;3.63;;;11.10;1.00;;;;;;5084831;28;20700;-72
2022/10/01 03:36:46;;;;;;;6.20;3.47;;;11.10;1.00;;;;;;5088501;28;20219;-72
2022/10/01 03:39:12;;;;;;;5.60;4.20;;;11.10;1.00;;;;;;5079183;28;20221;-73
2022/10/01 03:41:37;;;;;;;4.63;3.60;;;11.10;1.00;;;;;;5085288;28;20220;-73
2022/10/01 03:44:03;;;;;;;5.00;3.50;;;11.10;1.00;;;;;;5086779;28;20517;-72
2022/10/01 03:46:29;;;;;;;3.67;3.23;;;11.10;1.00;;;;;;5081088;28;20177;-72
2022/10/01 03:48:56;;;;;;;4.30;3.47;;;11.20;1.00;;;;;;5084711;28;20452;-72
2022/10/01 03:51:22;;;;;;;4.07;3.23;;;11.20;1.00;;;;;;5082891;28;20198;-72
2022/10/01 03:53:48;;;;;;;4.50;3.80;;;11.30;1.00;;;;;;5087050;28;20501;-72
2022/10/01 03:56:14;;;;;;;6.57;3.90;;;11.30;1.00;;;;;;5081249;28;20510;-72
2022/10/01 03:58:40;;;;;;;5.90;3.00;;;11.30;1.00;;;;;;5088505;28;20257;-72
2022/10/01 04:01:05;;;;;;;3.93;3.53;;;11.30;1.00;;;;;;5079976;28;20426;-72
2022/10/01 04:03:31;;;;;;;8.20;3.30;;;11.40;1.00;;;;;;5087864;28;20258;-72
2022/10/01 04:05:57;;;;;;;3.37;3.07;;;11.40;1.00;;;;;;5086624;28;20187;-72
2022/10/01 04:08:23;;;;;;;6.43;3.10;;;11.40;1.00;;;;;;5084401;28;20288;-72
2022/10/01 04:10:48;;;;;;;3.97;2.90;;;11.50;1.00;;;;;;5081529;28;20917;-72
2022/10/01 04:13:14;;;;;;;3.90;2.97;;;11.50;1.00;;;;;;5086036;28;20168;-73
2022/10/01 04:15:40;;;;;;;8.17;3.33;;;11.50;1.00;;;;;;5088726;28;20167;-71
2022/10/01 04:18:06;;;;;;;3.20;2.90;;;11.60;1.00;;;;;;5090865;28;20661;-73
2022/10/01 04:20:33;;;;;;;3.77;2.57;;;11.60;1.00;;;;;;5087874;28;20240;-73
2022/10/01 04:22:59;;;;;;;3.50;2.70;;;11.60;1.00;;;;;;5091659;28;20447;-72
2022/10/01 04:25:25;;;;;;;6.80;2.57;;;11.60;1.00;;;;;;5078351;28;20430;-72
2022/10/01 04:28:02;;;;;;;4.27;3.07;;;11.70;1.00;;;;;;5091766;28;20289;-73
2022/10/01 04:30:36;;;;;;;5.43;2.80;;;11.70;1.00;;;;;;5080816;28;20456;-72
2022/10/01 04:33:03;;;;;;;3.20;2.47;;;11.70;1.00;;;;;;5083358;28;20405;-72
2022/10/01 04:35:29;;;;;;;3.50;2.40;;;11.70;1.00;;;;;;5087113;28;20473;-72
2022/10/01 04:38:02;;;;;;;4.00;3.07;;;11.70;1.00;;;;;;5091854;28;20461;-73
2022/10/01 04:40:33;;;;;;;3.20;2.70;;;11.60;1.00;;;;;;5085446;28;20708;-72
2022/10/01 04:42:59;;;;;;;3.50;2.63;;;11.60;1.00;;;;;;5084236;28;20828;-73
2022/10/01 04:45:25;;;;;;;7.23;3.13;;;11.50;1.00;;;;;;5090159;28;20425;-70
2022/10/01 04:47:54;;;;;;;3.87;2.90;;;11.40;1.00;;;;;;5087016;28;20445;-71
2022/10/01 04:50:21;;;;;;;4.20;3.00;;;11.30;1.00;;;;;;5082181;28;20187;-70
2022/10/01 04:52:47;;;;;;;5.27;2.87;;;11.30;1.00;;;;;;5086274;28;20435;-73
2022/10/01 04:55:14;;;;;;;4.57;2.90;;;11.30;1.00;;;;;;5087646;28;20426;-72
2022/10/01 04:57:39;;;;;;;4.13;3.13;;;11.20;1.00;;;;;;5088823;28;20365;-72
2022/10/01 05:00:08;;;;;;;6.73;3.20;;;11.20;1.00;;;;;;5090728;28;20447;-72
2022/10/01 05:02:34;;;;;;;4.90;2.77;;;11.10;1.00;;;;;;5075757;28;20687;-72
2022/10/01 05:05:02;;;;;;;4.53;3.50;;;10.90;1.00;;;;;;5091230;28;20438;-74
2022/10/01 05:07:29;;;;;;;3.10;2.73;;;10.80;4.50;;;;;;5086626;28;20172;-71
2022/10/01 05:09:55;;;;;;;3.53;2.80;;;10.80;5.70;;;;;;5085954;28;20776;-72
2022/10/01 05:12:21;;;;;;;4.90;2.77;;;10.70;7.60;;;;;;5089840;28;20424;-75
2022/10/01 05:14:47;;;;;;;3.83;2.80;;;10.70;11.80;;;;;;5084616;28;20180;-72
2022/10/01 05:17:17;;;;;;;4.17;2.90;;;10.60;9.80;;;;;;5089541;28;20484;-72
2022/10/01 05:19:42;;;;;;;4.50;2.90;;;10.60;13.50;;;;;;5091326;28;20278;-72
2022/10/01 05:22:08;;;;;;;4.13;3.40;;;10.60;12.80;;;;;;5087198;28;20540;-72
2022/10/01 05:24:33;;;;;;;6.27;3.30;;;10.60;23.80;;;;;;5083784;28;20291;-73
2022/10/01 05:26:59;;;;;;;3.40;2.87;;;10.60;20.10;;;;;;5085925;28;20302;-71
2022/10/01 05:29:25;;;;;;;6.20;3.27;;;10.50;18.90;;;;;;5086371;28;20222;-72
2022/10/01 05:31:50;;;;;;;5.93;4.13;;;10.50;27.00;;;;;;5089719;28;20280;-73
2022/10/01 05:34:16;;;;;;;5.17;3.97;;;10.50;27.40;;;;;;5086893;28;20198;-73
2022/10/01 05:36:42;;;;;;;3.83;3.30;;;10.50;30.40;;;;;;5089941;28;20201;-72
2022/10/01 05:39:08;;;;;;;5.77;3.10;;;10.50;32.10;;;;;;5087574;28;20457;-72
2022/10/01 05:41:34;;;;;;;4.43;2.67;;;10.50;38.30;;;;;;5084825;28;20190;-72
2022/10/01 05:43:59;;;;;;;3.97;3.13;;;10.50;38.20;;;;;;5084605;28;20425;-72
2022/10/01 05:46:25;;;;;;;3.40;3.10;;;10.50;35.10;;;;;;5077269;28;20912;-74
2022/10/01 05:48:51;;;;;;;6.70;3.77;;;10.50;38.20;;;;;;5086589;28;20192;-72
2022/10/01 05:51:17;;;;;;;4.30;3.63;;;10.50;38.30;;;;;;5088636;28;20199;-73
2022/10/01 05:53:43;;;;;;;4.37;3.50;;;10.50;38.40;;;;;;5088055;28;20361;-73
2022/10/01 05:56:09;;;;;;;5.80;3.40;;;10.50;38.40;;;;;;5085125;28;20179;-72
2022/10/01 05:58:35;;;;;;;7.03;3.63;;;10.50;38.30;;;;;;5086621;28;20327;-73
2022/10/01 06:01:01;;;;;;;10.03;3.90;;;10.50;38.40;;;;;;5089717;28;20529;-72
2022/10/01 06:03:27;;;;;;;3.87;3.47;;;10.50;38.30;;;;;;5088493;28;20406;-72
2022/10/01 06:05:53;;;;;;;4.50;3.25;;;10.60;38.40;;;;;;5088659;28;20894;-74
2022/10/01 06:08:20;;;;;;;3.33;2.70;;;10.80;92.50;;;;;;5086443;28;20212;-73
2022/10/01 06:10:46;;;;;;;4.83;3.00;;;11.50;71.50;;;;;;5080111;28;20430;-76
2022/10/01 06:13:16;;;;;;;3.10;2.50;;;12.40;32.70;;;;;;5083403;28;20414;-77
2022/10/01 06:15:43;;;;;;;5.60;2.67;;;12.10;31.10;;;;;;5096164;28;20733;-77
2022/10/01 06:18:11;;;;;;;3.57;2.70;;;12.20;22.30;;;;;;5088436;28;20487;-76
2022/10/01 06:20:37;;;;;;;2.50;2.30;;;12.30;13.80;;;;;;5080467;28;20935;-78
2022/10/01 06:23:06;;;;;;;2.43;2.23;;;12.40;18.80;;;;;;5086005;28;20947;-72
2022/10/01 06:25:33;;;;;;;3.70;2.83;;;12.50;1.00;;;;;;5074700;28;20426;-73
2022/10/01 06:27:59;;;;;;;5.27;3.23;;;12.10;1.00;;;;;;5081490;28;20648;-74
2022/10/01 06:30:26;;;;;;;3.80;2.77;;;11.60;8.90;;;;;;5085843;28;20453;-73
2022/10/01 06:32:53;;;;;;;11.13;3.10;;;11.30;16.80;;;;;;5074853;28;20185;-73
2022/10/01 06:35:22;;;;;;;3.10;2.60;;;11.20;25.10;;;;;;5085826;28;20800;-73
2022/10/01 06:37:47;;;;;;;4.47;3.20;;;11.10;23.20;;;;;;5081316;28;20465;-74
2022/10/01 06:40:13;;;;;;;4.27;2.90;;;11.10;38.80;;;;;;5091723;28;20458;-72
2022/10/01 06:42:38;;;;;;;7.30;2.90;;;11.00;36.90;;;;;;5089122;28;20489;-72
2022/10/01 06:45:04;;;;;;;3.60;3.10;;;11.00;28.30;;;;;;5084530;28;20188;-73
2022/10/01 06:47:30;;;;;;;3.43;2.80;;;10.90;36.50;;;;;;5071210;28;20667;-73
2022/10/01 06:49:58;;;;;;;5.50;3.17;;;10.90;38.70;;;;;;5086944;28;20426;-73
2022/10/01 06:55:07;;;;;;;3.03;2.73;;;10.90;38.70;;;;;;5085566;28;20582;-74
2022/10/01 06:57:33;;;;;;;3.23;2.53;;;10.90;36.50;;;;;;5084763;28;21043;-74
2022/10/01 06:59:59;;;;;;;3.87;3.10;;;10.90;38.80;;;;;;5089342;28;20245;-74
2022/10/01 07:02:27;;;;;;;3.87;2.90;;;10.90;39.00;;;;;;5087318;28;20538;-73
2022/10/01 07:05:00;;;;;;;3.63;3.10;;;10.90;41.40;;;;;;5080285;28;20286;-73
2022/10/01 07:07:36;;;;;;;4.00;2.80;;;10.90;38.70;;;;;;5079838;28;20437;-73
2022/10/01 07:10:04;;;;;;;4.63;3.00;;;10.90;38.70;;;;;;5079863;28;20570;-74
2022/10/01 07:12:30;;;;;;;3.30;2.70;;;10.90;38.70;;;;;;5085901;28;20429;-74
2022/10/01 07:14:57;;;;;;;10.40;2.93;;;10.90;38.70;;;;;;5084875;28;20429;-73
2022/10/01 07:17:22;;;;;;;3.57;2.20;;;10.90;38.70;;;;;;5081439;28;20209;-74
2022/10/01 07:19:48;;;;;;;4.43;2.90;;;10.90;38.70;;;;;;5083659;28;20434;-75
2022/10/01 07:22:13;;;;;;;3.30;2.70;;;10.90;38.80;;;;;;5087577;28;20314;-73
2022/10/01 07:24:39;;;;;;;3.80;2.80;;;11.00;46.10;;;;;;5078048;28;20237;-74
2022/10/01 07:27:05;;;;;;;4.53;2.87;;;11.00;43.80;;;;;;5073058;28;20176;-75
2022/10/01 07:29:30;;;;;;;3.50;2.83;;;11.10;48.50;;;;;;5082764;28;20728;-74
2022/10/01 07:31:58;;;;;;;3.10;2.80;;;11.10;38.90;;;;;;5082893;28;20188;-74
2022/10/01 07:34:25;;;;;;;3.60;2.80;;;11.00;38.80;;;;;;5069765;28;20168;-75
2022/10/01 07:36:50;;;;;;;2.70;2.20;;;11.00;38.90;;;;;;5085778;28;20884;-73
2022/10/01 07:39:16;;;;;;;6.70;2.57;;;11.00;38.90;;;;;;5085078;28;20541;-73
2022/10/01 07:41:42;;;;;;;2.93;2.50;;;11.00;39.00;;;;;;5086232;28;20184;-75
2022/10/01 07:44:08;;;;;;;2.90;2.57;;;11.00;38.90;;;;;;5090672;28;20193;-73
2022/10/01 07:46:34;;;;;;;4.77;3.10;;;11.00;38.80;;;;;;5077669;28;20172;-75
2022/10/01 07:49:00;;;;;;;3.58;2.70;;;11.10;45.70;;;;;;5081704;28;20778;-75
2022/10/01 07:51:25;;;;;;;8.80;3.20;;;11.10;45.60;;;;;;5083864;28;20191;-73
2022/10/01 07:53:51;;;;;;;3.40;2.97;;;11.10;43.10;;;;;;5092050;28;20530;-75
2022/10/01 07:56:16;;;;;;;3.47;2.37;;;11.20;50.30;;;;;;5081548;28;20214;-74
2022/10/01 07:58:42;;;;;;;6.00;2.63;;;11.20;42.30;;;;;;5092315;28;20758;-74
2022/10/01 08:01:08;;;;;;;6.43;2.80;;;11.30;49.40;;;;;;5088196;28;20741;-74
2022/10/01 08:03:34;;;;;;;3.83;2.67;;;11.30;49.90;;;;;;5092352;28;20561;-74
2022/10/01 08:06:02;;;;;;;3.80;2.37;;;11.20;46.00;;;;;;5084139;28;20429;-73
2022/10/01 08:08:29;;;;;;;3.30;2.60;;;11.50;49.10;;;;;;5084773;28;20222;-73
2022/10/01 08:10:55;;;;;;;5.20;3.00;;;11.20;55.10;;;;;;5084034;28;20437;-75
2022/10/01 08:13:23;;;;;;;3.00;2.60;;;11.30;57.40;;;;;;5092228;28;20418;-74
2022/10/01 08:15:53;;;;;;;3.30;2.67;;;11.30;52.40;;;;;;5094758;28;20179;-73
2022/10/01 08:18:20;;;;;;;2.73;2.47;;;11.30;57.40;;;;;;5090547;28;21055;-74
2022/10/01 08:20:46;;;;;;;3.30;2.23;;;11.30;54.50;;;;;;5088938;28;20465;-74
2022/10/01 08:23:13;;;;;;;7.20;2.77;;;11.30;51.90;;;;;;5091722;28;20420;-76
2022/10/01 08:25:40;;;;;;;3.43;2.60;;;11.30;60.00;;;;;;5089690;28;20519;-75
2022/10/01 08:28:07;;;;;;;3.60;2.90;;;11.30;57.40;;;;;;5081265;28;20588;-74
2022/10/01 08:30:35;;;;;;;3.00;2.70;;;11.30;66.30;;;;;;5075853;28;20441;-75
2022/10/01 08:33:00;;;;;;;2.73;2.40;;;11.30;58.80;;;;;;5086489;28;20422;-75
2022/10/01 08:35:27;;;;;;;4.17;3.00;;;11.30;56.90;;;;;;5093721;28;20947;-75
2022/10/01 08:37:54;;;;;;;3.53;2.50;;;11.30;69.00;;;;;;5078709;28;20219;-75
2022/10/01 08:40:20;;;;;;;2.47;2.27;;;11.30;66.60;;;;;;5088876;28;20425;-74
2022/10/01 08:42:58;;;;;;;5.50;2.87;;;11.20;54.30;;;;;;5085737;28;20405;-75
2022/10/01 08:45:46;;;;;;;3.50;3.00;;;11.20;62.80;;;;;;5094727;28;20179;-75
2022/10/01 08:48:38;;;;;;;4.00;2.40;;;11.20;69.20;;;;;;5091211;28;20441;-76
2022/10/01 08:51:14;;;;;;;3.63;2.43;;;11.20;63.70;;;;;;5077891;28;20773;-73
2022/10/01 08:53:52;;;;;;;4.20;2.60;;;11.10;68.40;;;;;;5083832;28;20421;-76
2022/10/01 08:56:29;;;;;;;4.10;2.57;;;11.10;67.50;;;;;;5086006;28;20429;-74
2022/10/01 08:59:04;;;;;;;4.13;2.70;;;11.10;71.20;;;;;;5091292;28;20484;-75
2022/10/01 09:01:30;;;;;;;4.93;2.80;;;11.10;79.60;;;;;;5082978;28;20942;-74
2022/10/01 09:03:57;;;;;;;2.17;1.97;;;11.10;79.10;;;;;;5082609;28;20486;-76
2022/10/01 09:06:25;;;;;;;2.73;2.50;;;11.00;78.00;;;;;;5087702;28;20200;-75
2022/10/01 09:09:28;;;;;;;5.43;3.23;;;11.10;73.70;;;;;;5087183;28;20464;-77
2022/10/01 09:12:15;;;;;;;3.80;2.50;;;11.10;81.30;;;;;;5093703;28;20476;-75
2022/10/01 09:15:06;;;;;;;3.90;2.50;;;11.20;79.60;;;;;;5078326;28;20480;-76
2022/10/01 09:18:15;;;;;;;5.00;2.60;;;11.30;80.00;;;;;;5086433;28;20445;-75
2022/10/01 09:20:46;;;;;;;2.73;2.50;;;11.40;86.70;;;;;;5071181;28;20510;-77
2022/10/01 09:23:30;;;;;;;2.70;2.50;;;11.40;79.60;;;;;;5089539;28;21308;-76
2022/10/01 09:25:58;;;;;;;3.83;2.40;;;11.50;78.10;;;;;;5088671;28;20406;-74
2022/10/01 09:28:32;;;;;;;6.80;3.17;;;11.50;75.20;;;;;;5079448;28;20441;-76
2022/10/01 09:31:23;;;;;;;3.43;2.50;;;11.50;71.10;;;;;;5090318;28;20454;-76
2022/10/01 09:34:01;;;;;;;4.73;2.60;;;11.50;73.80;;;;;;5084404;28;20426;-75
2022/10/01 09:36:37;;;;;;;2.80;2.40;;;11.50;70.90;;;;;;5088677;28;20413;-73
2022/10/01 09:39:44;;;;;;;2.77;2.40;;;11.50;70.30;;;;;;5080087;28;20560;-76
2022/10/01 09:42:09;;;;;;;3.60;2.90;;;11.60;75.80;;;;;;5079274;28;20465;-75
2022/10/01 09:44:36;;;;;;;3.20;2.90;;;11.60;71.40;;;;;;5088924;28;20417;-76
2022/10/01 09:47:01;;;;;;;2.40;2.20;;;11.60;70.10;;;;;;5082985;28;20262;-74
2022/10/01 09:49:33;;;;;;;3.40;2.27;;;11.50;67.70;;;;;;5086878;28;20532;-75
2022/10/01 09:52:27;;;;;;;3.57;2.40;;;11.60;71.60;;;;;;5087925;28;20171;-75
2022/10/01 09:55:06;;;;;;;2.73;2.53;;;11.70;71.60;;;;;;5082332;28;20414;-74
2022/10/01 09:57:39;;;;;;;3.80;2.77;;;11.80;69.80;;;;;;5084128;28;20454;-74
2022/10/01 10:00:28;;;;;;;3.63;2.53;;;11.80;71.90;;;;;;5095286;28;20448;-72
2022/10/01 10:02:55;;;;;;;5.60;2.30;;;11.90;76.10;;;;;;5080839;28;20963;-75
2022/10/01 10:05:26;;;;;;;2.60;2.20;;;11.90;59.50;;;;;;5084007;28;20454;-74
2022/10/01 10:07:59;;;;;;;4.53;2.20;;;11.90;63.40;;;;;;5088937;28;20434;-74
2022/10/01 10:10:38;;;;;;;3.33;1.97;;;11.80;58.20;;;;;;5086668;28;20799;-75
2022/10/01 10:13:17;;;;;;;3.00;1.70;;;11.70;61.20;;;;;;5084347;28;21053;-74
2022/10/01 10:15:51;;;;;;;2.43;2.20;;;11.70;54.80;;;;;;5086690;28;20925;-73
2022/10/01 10:18:27;;;;;;;5.80;3.20;;;11.80;62.00;;;;;;5087432;28;20449;-73
2022/10/01 10:20:53;;;;;;;4.33;2.20;;;11.90;70.20;;;;;;5076489;28;20515;-73
2022/10/01 10:23:22;;;;;;;4.30;2.27;;;12.00;60.00;;;;;;5081070;28;20440;-77
2022/10/01 10:26:03;;;;;;;2.47;2.27;;;12.00;65.00;;;;;;5088218;28;20418;-73
2022/10/01 10:28:43;;;;;;;4.87;2.03;;;11.90;58.70;;;;;;5087377;28;20441;-75
2022/10/01 10:31:26;;;;;;;4.63;1.90;;;12.00;54.10;;;;;;5080134;28;20510;-73
2022/10/01 10:34:06;;;;;;;2.40;2.10;;;12.00;50.60;;;;;;5088645;28;20935;-74
2022/10/01 10:36:35;;;;;;;1.90;1.70;;;12.00;51.30;;;;;;5079644;28;20521;-73
2022/10/01 10:39:03;;;;;;;2.80;2.13;;;12.00;50.70;;;;;;5085983;28;20454;-74
2022/10/01 10:41:29;;;;;;;4.23;2.77;;;12.20;48.30;;;;;;5081219;28;20480;-73
2022/10/01 10:44:05;;;;;;;2.73;2.33;;;12.40;49.50;;;;;;5092285;28;20413;-75
2022/10/01 10:46:34;;;;;;;2.17;1.80;;;12.50;40.10;;;;;;5075134;28;20430;-76
2022/10/01 10:49:06;;;;;;;2.97;2.40;;;12.60;40.20;;;;;;5073335;28;20472;-74
2022/10/01 10:51:52;;;;;;;4.20;2.70;;;12.70;40.20;;;;;;5079937;28;20421;-74
2022/10/01 10:54:30;;;;;;;2.30;2.10;;;12.80;40.30;;;;;;5078113;28;20433;-75
2022/10/01 10:57:01;;;;;;;2.10;1.70;;;12.90;40.40;;;;;;5078018;28;20469;-74
2022/10/01 10:59:32;;;;;;;6.57;1.80;;;13.00;40.40;;;;;;5084990;28;20434;-74
2022/10/01 11:02:00;;;;;;;3.80;2.17;;;13.10;35.20;;;;;;5079632;28;20498;-74
2022/10/01 11:04:36;;;;;;;2.07;1.70;;;13.10;40.50;;;;;;5089568;28;20780;-75
2022/10/01 11:07:03;;;;;;;3.30;2.30;;;13.10;40.50;;;;;;5077716;28;20432;-76
2022/10/01 11:09:36;;;;;;;2.77;1.93;;;13.10;40.50;;;;;;5083426;28;20464;-75
2022/10/01 11:12:20;;;;;;;2.13;1.90;;;13.20;40.40;;;;;;5088099;28;20402;-74
2022/10/01 11:14:52;;;;;;;2.00;1.80;;;13.30;36.60;;;;;;5089772;28;20437;-75
2022/10/01 11:17:54;;;;;;;2.87;2.30;;;13.40;36.10;;;;;;5083306;28;20819;-74
2022/10/01 11:20:41;;;;;;;3.60;2.30;;;13.50;34.20;;;;;;5081280;28;20429;-73
2022/10/01 11:23:41;;;;;;;3.57;1.80;;;13.50;30.80;;;;;;5073541;28;20426;-75
2022/10/01 11:26:22;;;;;;;1.70;1.60;;;13.50;25.70;;;;;;5083820;28;20421;-74
2022/10/01 11:29:04;;;;;;;6.63;1.53;;;13.60;23.60;;;;;;5089492;28;20469;-74
2022/10/01 11:31:42;;;;;;;2.63;1.70;;;13.70;22.50;;;;;;5092160;28;20401;-75
2022/10/01 11:34:26;;;;;;;2.20;1.60;;;13.60;20.80;;;;;;5088107;28;20433;-74
2022/10/01 11:37:00;;;;;;;1.80;1.60;;;13.60;27.40;;;;;;5091611;28;20516;-75
2022/10/01 11:39:27;;;;;;;2.17;1.80;;;13.80;20.90;;;;;;5088683;28;20453;-76
2022/10/01 11:41:59;;;;;;;2.60;1.80;;;13.70;23.50;;;;;;5088795;28;20993;-74
2022/10/01 11:44:34;;;;;;;2.97;1.50;;;13.80;19.90;;;;;;5094502;28;20429;-74
2022/10/01 11:47:09;;;;;;;2.20;1.40;;;13.70;15.70;;;;;;5100543;28;20760;-74
2022/10/01 11:49:46;;;;;;;2.23;1.40;;;13.70;17.80;;;;;;5088384;28;20484;-74
2022/10/01 11:52:40;;;;;;;2.40;1.70;;;13.70;24.90;;;;;;5071493;28;20478;-74
2022/10/01 12:01:36;;;;;;;2.00;1.70;;;13.70;23.10;;;;;;5085147;28;20801;-75
2022/10/01 12:04:31;;;;;;;1.50;1.40;;;13.80;19.90;;;;;;5085240;28;20432;-74
2022/10/01 12:07:27;;;;;;;1.60;1.43;;;13.80;14.80;;;;;;5082540;28;20477;-75
2022/10/01 12:10:32;;;;;;;2.27;1.50;;;13.90;16.20;;;;;;5089518;28;20783;-76
2022/10/01 12:13:09;;;;;;;3.73;1.60;;;13.70;14.80;;;;;;5091636;28;20492;-75
2022/10/01 12:15:52;;;;;;;1.80;1.70;;;13.90;17.20;;;;;;5092398;28;20759;-78
2022/10/01 12:18:29;;;;;;;1.67;1.57;;;13.90;12.60;;;;;;5091891;28;20521;-74
2022/10/01 12:21:00;;;;;;;2.03;1.47;;;14.00;12.80;;;;;;5082872;28;20514;-74
2022/10/01 12:23:30;;;;;;;2.90;1.80;;;14.00;13.70;;;;;;5092281;28;20459;-76
2022/10/01 12:26:03;;;;;;;1.70;1.60;;;14.20;12.00;;;;;;5085120;28;20465;-74
2022/10/01 12:28:39;;;;;;;3.23;1.57;;;14.30;7.80;;;;;;5091660;28;20456;-75
2022/10/01 12:31:20;;;;;;;2.33;1.60;;;14.50;3.10;;;;;;5087775;28;20439;-74
2022/10/01 12:33:50;;;;;;;1.73;1.50;;;14.70;1.00;;;;;;5091599;28;20748;-74
2022/10/01 12:36:30;;;;;;;1.57;1.47;;;14.70;1.00;;;;;;5082481;28;20426;-73
2022/10/01 12:39:16;;;;;;;1.60;1.50;;;14.70;1.00;;;;;;5090595;28;21019;-75
2022/10/01 12:41:54;;;;;;;2.10;1.60;;;14.50;1.00;;;;;;5091053;28;20531;-75
2022/10/01 12:44:50;;;;;;;1.90;1.40;;;14.40;3.80;;;;;;5091059;28;20433;-74
2022/10/01 12:47:46;;;;;;;2.40;1.53;;;14.30;3.20;;;;;;5086543;28;20485;-74
2022/10/01 12:50:36;;;;;;;1.80;1.60;;;14.20;3.80;;;;;;5077538;28;20426;-77
2022/10/01 12:53:39;;;;;;;2.00;1.60;;;14.30;3.60;;;;;;5083318;28;20455;-75
2022/10/01 12:56:14;;;;;;;2.20;1.60;;;14.40;4.70;;;;;;5085335;28;20425;-74
2022/10/01 12:59:05;;;;;;;3.03;1.63;;;14.50;2.10;;;;;;5091472;28;20921;-75
2022/10/01 13:02:07;;;;;;;2.53;1.70;;;14.90;1.00;;;;;;5087714;28;20441;-76
2022/10/01 13:05:14;;;;;;;1.70;1.50;;;15.10;1.00;;;;;;5086020;28;20446;-73
2022/10/01 13:07:57;;;;;;;3.37;2.00;;;15.20;1.00;;;;;;5083708;28;20434;-74
2022/10/01 13:10:47;;;;;;;3.33;1.40;;;15.30;1.00;;;;;;5085729;28;20844;-74
2022/10/01 13:13:20;;;;;;;1.97;1.30;;;15.30;1.00;;;;;;5083836;28;20986;-75
2022/10/01 13:15:48;;;;;;;1.60;1.50;;;15.30;1.00;;;;;;5088138;28;20418;-75
2022/10/01 13:18:19;;;;;;;2.93;1.90;;;15.30;1.00;;;;;;5089732;28;20465;-76
2022/10/01 13:21:00;;;;;;;5.27;3.80;;;15.30;1.00;;;;;;5093054;28;20429;-77
2022/10/01 13:23:57;;;;;;;2.30;1.90;;;15.20;1.00;;;;;;5087158;28;20869;-75